Time;durP1;ratioP1;P1;durP2;ratioP2;P2;SDS_P1;SDS_P2;PMS_P1;PMS_P2;Temp;Humidity;BMP_temperature;BMP_pressure;BME280_temperature;BME280_humidity;BME280_pressure;Samples;Min_cycle;Max_cycle;Signal;HPM_P1;HPM_P2
2022/06/20 00:01:19;;;;;;;1999.90;999.90;;;17.10;99.90;;;;;;4955640;28;20560;-71
2022/06/20 00:03:48;;;;;;;1999.90;999.90;;;17.10;99.90;;;;;;4955705;28;20418;-71
2022/06/20 00:06:16;;;;;;;1999.90;999.90;;;17.10;99.90;;;;;;4955327;28;20660;-71
2022/06/20 00:08:42;;;;;;;1999.90;999.90;;;17.10;99.90;;;;;;4955511;28;20456;-71
2022/06/20 00:11:19;;;;;;;1999.90;999.90;;;17.10;99.90;;;;;;4955410;28;20963;-71
2022/06/20 00:13:46;;;;;;;1999.90;999.90;;;17.10;99.90;;;;;;4955477;28;20195;-71
2022/06/20 00:16:15;;;;;;;1999.90;999.90;;;17.00;99.90;;;;;;4954940;28;20412;-71
2022/06/20 00:18:41;;;;;;;1999.90;999.90;;;17.00;99.90;;;;;;4955360;28;20866;-71
2022/06/20 00:21:14;;;;;;;1999.90;999.90;;;17.00;99.90;;;;;;4955236;28;20517;-71
2022/06/20 00:23:41;;;;;;;1999.90;999.90;;;17.00;99.90;;;;;;4955297;28;20266;-71
2022/06/20 00:26:08;;;;;;;1999.90;999.90;;;17.00;99.90;;;;;;4954974;28;20416;-71
2022/06/20 00:28:33;;;;;;;1999.90;999.90;;;17.00;99.90;;;;;;4955110;28;20480;-71
2022/06/20 00:31:00;;;;;;;1999.90;999.90;;;17.00;99.90;;;;;;4954918;28;20447;-71
2022/06/20 00:33:26;;;;;;;1999.90;999.90;;;17.00;99.90;;;;;;4955076;28;20185;-71
2022/06/20 00:35:53;;;;;;;1999.90;999.90;;;17.00;99.90;;;;;;4954943;28;20419;-71
2022/06/20 00:38:21;;;;;;;1999.90;999.90;;;17.00;99.90;;;;;;4954707;28;20649;-71
2022/06/20 00:40:50;;;;;;;1999.90;999.90;;;17.00;99.90;;;;;;4955079;28;20798;-71
2022/06/20 00:43:36;;;;;;;1999.90;999.90;;;17.00;99.90;;;;;;4954723;28;20405;-71
2022/06/20 00:46:04;;;;;;;1999.90;999.90;;;17.00;99.90;;;;;;4954591;28;20477;-71
2022/06/20 00:48:39;;;;;;;1999.90;999.90;;;17.00;99.90;;;;;;4954732;28;20544;-71
2022/06/20 00:51:23;;;;;;;1999.90;999.90;;;17.00;99.90;;;;;;4954670;28;20434;-71
2022/06/20 00:53:57;;;;;;;1999.90;999.90;;;17.00;99.90;;;;;;4954762;28;20437;-71
2022/06/20 00:56:50;;;;;;;1999.90;999.90;;;17.10;99.90;;;;;;4954383;28;20404;-72
2022/06/20 00:59:20;;;;;;;1999.90;999.90;;;17.10;99.90;;;;;;4954503;28;20453;-71
2022/06/20 01:01:45;;;;;;;1999.90;999.90;;;17.00;99.90;;;;;;4954561;28;20503;-72
2022/06/20 01:04:36;;;;;;;1999.90;999.90;;;16.80;99.90;;;;;;4954426;28;20462;-72
2022/06/20 01:07:08;;;;;;;1999.90;999.90;;;16.60;99.90;;;;;;4954219;28;20175;-72
2022/06/20 01:09:39;;;;;;;1999.90;999.90;;;16.20;99.90;;;;;;4954312;28;21033;-72
2022/06/20 01:12:13;;;;;;;1999.90;999.90;;;16.00;99.90;;;;;;4954314;28;20843;-72
2022/06/20 01:14:39;;;;;;;1999.90;999.90;;;15.80;99.90;;;;;;4954430;28;20423;-72
2022/06/20 01:17:16;;;;;;;1999.90;999.90;;;15.50;99.90;;;;;;4954145;28;20414;-73
2022/06/20 01:19:44;;;;;;;1999.90;999.90;;;15.30;99.90;;;;;;4954374;28;20437;-73
2022/06/20 01:22:35;;;;;;;1999.90;999.90;;;15.10;99.90;;;;;;4954145;28;20887;-72
2022/06/20 01:25:21;;;;;;;1999.90;999.90;;;14.90;99.90;;;;;;4954331;28;20406;-72
2022/06/20 01:27:50;;;;;;;1999.90;999.90;;;14.80;99.90;;;;;;4953354;28;20897;-72
2022/06/20 01:30:18;;;;;;;1999.90;999.90;;;14.70;99.90;;;;;;4953959;28;20429;-72
2022/06/20 01:32:44;;;;;;;1999.90;999.90;;;14.70;99.90;;;;;;4954206;28;20410;-72
2022/06/20 01:37:23;;;;;;;1999.90;999.90;;;14.60;99.90;;;;;;4954100;28;20466;-72
2022/06/20 01:38:00;;;;;;;1999.90;999.90;;;14.60;99.90;;;;;;4953686;29;20185;-72
2022/06/20 01:40:27;;;;;;;1999.90;999.90;;;14.60;99.90;;;;;;4953966;28;20806;-72
2022/06/20 01:42:53;;;;;;;1999.90;999.90;;;14.60;99.90;;;;;;4953961;28;20457;-71
2022/06/20 01:48:09;;;;;;;1999.90;999.90;;;14.60;99.90;;;;;;4953766;29;20458;-71
2022/06/20 01:50:35;;;;;;;1999.90;999.90;;;14.60;99.90;;;;;;4954014;28;20434;-71
2022/06/20 01:53:05;;;;;;;1999.90;999.90;;;14.70;99.90;;;;;;4954002;28;20410;-71
2022/06/20 01:55:32;;;;;;;1999.90;999.90;;;14.80;99.90;;;;;;4953860;28;20920;-71
2022/06/20 01:58:39;;;;;;;1999.90;999.90;;;14.90;99.90;;;;;;4953576;28;20417;-72
2022/06/20 02:01:05;;;;;;;1999.90;999.90;;;14.90;99.90;;;;;;4921210;28;20461;-72
2022/06/20 02:03:36;;;;;;;1999.90;999.90;;;14.80;99.90;;;;;;4953921;28;20415;-71
2022/06/20 02:06:03;;;;;;;1999.90;999.90;;;14.90;99.90;;;;;;4953525;28;20447;-71
2022/06/20 02:08:29;;;;;;;1999.90;999.90;;;14.80;99.90;;;;;;4953722;28;20860;-71
2022/06/20 02:11:09;;;;;;;1999.90;999.90;;;14.80;99.90;;;;;;4953735;28;20444;-71
2022/06/20 02:13:42;;;;;;;1999.90;999.90;;;14.80;99.90;;;;;;4953751;28;20411;-71
2022/06/20 02:16:11;;;;;;;1999.90;999.90;;;14.70;99.90;;;;;;4953415;28;20419;-71
2022/06/20 02:18:40;;;;;;;1999.90;999.90;;;14.70;99.90;;;;;;4953729;28;20412;-71
2022/06/20 02:21:10;;;;;;;1999.90;999.90;;;14.70;99.90;;;;;;4953608;28;20520;-71
2022/06/20 02:23:42;;;;;;;1999.90;999.90;;;14.60;99.90;;;;;;4953664;28;20429;-71
2022/06/20 02:26:09;;;;;;;1999.90;999.90;;;14.40;99.90;;;;;;4953405;28;20411;-71
2022/06/20 02:28:45;;;;;;;1999.90;999.90;;;14.40;99.90;;;;;;4953582;28;20476;-72
2022/06/20 02:31:12;;;;;;;1999.90;999.90;;;14.30;99.90;;;;;;4953491;28;20854;-73
2022/06/20 02:33:38;;;;;;;1999.90;999.90;;;14.30;99.90;;;;;;4953616;28;20429;-73
2022/06/20 02:36:06;;;;;;;1999.90;999.90;;;14.20;99.90;;;;;;4953309;28;20402;-73
2022/06/20 02:38:32;;;;;;;1999.90;999.90;;;14.20;99.90;;;;;;4953898;28;20419;-73
2022/06/20 02:40:59;;;;;;;1999.90;999.90;;;14.20;99.90;;;;;;4957079;28;20504;-73
2022/06/20 02:43:37;;;;;;;1999.90;999.90;;;14.20;99.90;;;;;;4957066;28;20505;-73
2022/06/20 02:46:08;;;;;;;1999.90;999.90;;;14.10;99.90;;;;;;4956829;28;20413;-73
2022/06/20 02:48:35;;;;;;;1999.90;999.90;;;14.00;99.90;;;;;;4957008;28;20523;-73
2022/06/20 02:51:06;;;;;;;1999.90;999.90;;;13.90;99.90;;;;;;4956921;28;20944;-73
2022/06/20 02:53:37;;;;;;;1999.90;999.90;;;13.80;99.90;;;;;;4956905;28;20407;-73
2022/06/20 02:56:05;;;;;;;1999.90;999.90;;;13.80;99.90;;;;;;4956632;28;20840;-73
2022/06/20 02:58:33;;;;;;;1999.90;999.90;;;13.80;99.90;;;;;;4956872;28;20413;-73
2022/06/20 03:01:18;;;;;;;1999.90;999.90;;;13.90;99.90;;;;;;4956771;28;20437;-73
2022/06/20 03:03:47;;;;;;;1999.90;999.90;;;13.90;99.90;;;;;;4956887;28;20440;-73
2022/06/20 03:06:26;;;;;;;1999.90;999.90;;;13.90;99.90;;;;;;4956428;28;20413;-72
2022/06/20 03:08:54;;;;;;;1999.90;999.90;;;13.90;99.90;;;;;;4956638;28;20548;-71
2022/06/20 03:11:21;;;;;;;1999.90;999.90;;;14.00;99.90;;;;;;4956692;28;20459;-73
2022/06/20 03:13:47;;;;;;;1999.90;999.90;;;14.00;99.90;;;;;;4956648;28;20409;-73
2022/06/20 03:16:13;;;;;;;1999.90;999.90;;;14.00;99.90;;;;;;4956277;28;20823;-71
2022/06/20 03:18:45;;;;;;;1999.90;999.90;;;14.00;99.90;;;;;;4956536;28;20787;-74
2022/06/20 03:21:12;;;;;;;1999.90;999.90;;;14.00;99.90;;;;;;4956468;28;20437;-73
2022/06/20 03:23:38;;;;;;;1999.90;999.90;;;14.00;99.90;;;;;;4956410;28;20427;-72
2022/06/20 03:26:10;;;;;;;1999.90;999.90;;;14.10;99.90;;;;;;4956142;28;20915;-72
2022/06/20 03:28:36;;;;;;;1999.90;999.90;;;14.00;99.90;;;;;;4956223;28;20500;-72
2022/06/20 03:31:02;;;;;;;1999.90;999.90;;;14.00;99.90;;;;;;4956049;28;20453;-73
2022/06/20 03:33:29;;;;;;;1999.90;999.90;;;13.90;99.90;;;;;;4956237;28;20167;-72
2022/06/20 03:35:58;;;;;;;1999.90;999.90;;;13.90;99.90;;;;;;4956063;28;20416;-72
2022/06/20 03:38:26;;;;;;;1999.90;999.90;;;13.90;99.90;;;;;;4956149;28;20411;-72
2022/06/20 03:40:52;;;;;;;1999.90;999.90;;;13.90;99.90;;;;;;4956080;28;20991;-72
2022/06/20 03:43:23;;;;;;;1999.90;999.90;;;13.90;99.90;;;;;;4956054;28;20494;-73
2022/06/20 03:45:56;;;;;;;1999.90;999.90;;;14.00;99.90;;;;;;4955939;28;20534;-72
2022/06/20 03:48:28;;;;;;;1999.90;999.90;;;14.00;99.90;;;;;;4955764;28;20467;-72
2022/06/20 03:51:02;;;;;;;1999.90;999.90;;;14.00;99.90;;;;;;4955408;28;20452;-72
2022/06/20 03:53:35;;;;;;;1999.90;999.90;;;13.90;99.90;;;;;;4955910;28;20856;-73
2022/06/20 03:56:21;;;;;;;1999.90;999.90;;;13.90;99.90;;;;;;4955570;28;20466;-70
2022/06/20 03:58:56;;;;;;;1999.90;999.90;;;14.00;99.90;;;;;;4955821;28;20403;-73
2022/06/20 04:01:41;;;;;;;1999.90;999.90;;;14.00;99.90;;;;;;4955740;28;20577;-73
2022/06/20 04:04:16;;;;;;;1999.90;999.90;;;13.90;99.90;;;;;;4955951;28;20997;-73
2022/06/20 04:06:57;;;;;;;1999.90;999.90;;;14.00;99.90;;;;;;4955445;28;20413;-73
2022/06/20 04:12:28;;;;;;;1999.90;999.90;;;14.00;99.90;;;;;;4955645;29;20440;-73
2022/06/20 04:15:01;;;;;;;1999.90;999.90;;;14.00;99.90;;;;;;4955536;28;20401;-73
2022/06/20 04:20:39;;;;;;;1999.90;999.90;;;13.90;99.90;;;;;;4955773;29;20427;-71
2022/06/20 04:23:16;;;;;;;1999.90;999.90;;;13.80;99.90;;;;;;4947808;29;20514;-73
2022/06/20 04:26:09;;;;;;;1999.90;999.90;;;13.80;99.90;;;;;;4955384;28;20409;-73
2022/06/20 04:28:41;;;;;;;1999.90;999.90;;;13.80;99.90;;;;;;4955248;29;20799;-73
2022/06/20 04:31:28;;;;;;;1999.90;999.90;;;13.70;99.90;;;;;;4955399;28;20486;-73
2022/06/20 04:34:18;;;;;;;1999.90;999.90;;;13.70;99.90;;;;;;4955124;28;20404;-72
2022/06/20 04:36:56;;;;;;;1999.90;999.90;;;13.70;99.90;;;;;;4954718;28;20401;-72
2022/06/20 04:39:30;;;;;;;1999.90;999.90;;;13.80;99.90;;;;;;4955024;28;20403;-72
2022/06/20 04:42:12;;;;;;;1999.90;999.90;;;13.80;99.90;;;;;;4954885;28;20432;-73
2022/06/20 04:44:49;;;;;;;1999.90;999.90;;;13.80;99.90;;;;;;4954937;28;20905;-72
2022/06/20 04:47:46;;;;;;;1999.90;999.90;;;13.80;99.90;;;;;;4954675;28;20418;-73
2022/06/20 04:50:22;;;;;;;1999.90;999.90;;;13.80;99.90;;;;;;4954700;28;20414;-73
2022/06/20 04:52:50;;;;;;;1999.90;999.90;;;13.70;99.90;;;;;;4954761;28;20401;-72
2022/06/20 04:55:20;;;;;;;1999.90;999.90;;;13.70;99.90;;;;;;4954654;28;20414;-73
2022/06/20 04:57:46;;;;;;;1999.90;999.90;;;13.70;99.90;;;;;;4954374;28;20410;-73
2022/06/20 05:00:20;;;;;;;1999.90;999.90;;;13.70;99.90;;;;;;4954580;28;20414;-73
2022/06/20 05:02:47;;;;;;;1999.90;999.90;;;13.80;99.90;;;;;;4953801;28;20815;-73
2022/06/20 05:05:18;;;;;;;1999.90;999.90;;;13.90;99.90;;;;;;4954517;28;20436;-73
2022/06/20 05:07:45;;;;;;;1999.90;999.90;;;14.00;99.90;;;;;;4954312;28;20451;-73
2022/06/20 05:10:23;;;;;;;1999.90;999.90;;;14.00;99.90;;;;;;4954365;28;20416;-72
2022/06/20 05:12:57;;;;;;;1999.90;999.90;;;14.10;99.90;;;;;;4954466;28;20496;-72
2022/06/20 05:15:38;;;;;;;1999.90;999.90;;;14.10;99.90;;;;;;4954387;28;20963;-73
2022/06/20 05:18:16;;;;;;;1999.90;999.90;;;14.20;99.90;;;;;;4954163;28;20409;-73
2022/06/20 05:20:44;;;;;;;1999.90;999.90;;;14.20;99.90;;;;;;4954233;28;20866;-72
2022/06/20 05:23:32;;;;;;;1999.90;999.90;;;14.20;99.90;;;;;;4954317;28;20419;-73
2022/06/20 05:26:00;;;;;;;1999.90;999.90;;;14.20;99.90;;;;;;4954069;29;20956;-73
2022/06/20 05:28:27;;;;;;;1999.90;999.90;;;14.20;99.90;;;;;;4954146;28;20464;-73
2022/06/20 05:30:53;;;;;;;1999.90;999.90;;;14.10;99.90;;;;;;4953941;28;20443;-73
2022/06/20 05:33:32;;;;;;;1999.90;999.90;;;14.10;99.90;;;;;;4954284;28;20417;-73
2022/06/20 05:36:21;;;;;;;1999.90;999.90;;;14.10;99.90;;;;;;4953839;28;20451;-73
2022/06/20 05:38:53;;;;;;;1999.90;999.90;;;14.00;99.90;;;;;;4953598;29;20431;-73
2022/06/20 05:41:18;;;;;;;1999.90;999.90;;;14.00;99.90;;;;;;4954106;28;20426;-73
2022/06/20 05:43:44;;;;;;;1999.90;999.90;;;13.90;99.90;;;;;;4954031;28;20429;-73
2022/06/20 05:46:14;;;;;;;1999.90;999.90;;;13.80;99.90;;;;;;4955072;28;20188;-73
2022/06/20 05:48:53;;;;;;;1999.90;999.90;;;13.80;99.90;;;;;;4957124;28;20662;-73
2022/06/20 05:51:21;;;;;;;1999.90;999.90;;;13.70;99.90;;;;;;4953845;28;20430;-73
2022/06/20 05:54:04;;;;;;;1999.90;999.90;;;13.70;99.90;;;;;;4953913;28;20443;-72
2022/06/20 05:56:59;;;;;;;1999.90;999.90;;;13.70;99.90;;;;;;4953656;28;20517;-73
2022/06/20 05:59:31;;;;;;;1999.90;999.90;;;13.70;99.90;;;;;;4953893;29;20409;-73
2022/06/20 06:02:14;;;;;;;1999.90;999.90;;;13.70;99.90;;;;;;4953970;28;20437;-73
2022/06/20 06:05:06;;;;;;;1999.90;999.90;;;13.70;99.90;;;;;;4953836;28;20422;-73
2022/06/20 06:07:41;;;;;;;1999.90;999.90;;;13.70;99.90;;;;;;4945384;29;20429;-73
2022/06/20 06:10:21;;;;;;;1999.90;999.90;;;13.70;99.90;;;;;;4953693;28;20406;-73
2022/06/20 06:13:11;;;;;;;1999.90;999.90;;;13.70;99.90;;;;;;4954618;28;20437;-73
2022/06/20 06:16:46;;;;;;;1999.90;999.90;;;13.70;99.90;;;;;;4947352;29;20429;-73
2022/06/20 06:18:31;;;;;;;1999.90;999.90;;;13.60;99.90;;;;;;4957474;29;20431;-73
2022/06/20 06:20:56;;;;;;;1999.90;999.90;;;13.70;99.90;;;;;;4957425;28;20525;-73
2022/06/20 06:23:22;;;;;;;1999.90;999.90;;;13.80;99.90;;;;;;4957512;28;20842;-73
2022/06/20 06:25:48;;;;;;;1999.90;999.90;;;13.70;99.90;;;;;;4957517;28;20249;-72
2022/06/20 06:28:32;;;;;;;1999.90;999.90;;;13.80;99.90;;;;;;4957111;28;20495;-73
2022/06/20 06:31:09;;;;;;;1999.90;999.90;;;13.80;99.90;;;;;;4957345;28;20218;-73
2022/06/20 06:33:53;;;;;;;1999.90;999.90;;;13.90;99.90;;;;;;4957366;28;20418;-72
2022/06/20 06:36:37;;;;;;;1999.90;999.90;;;13.80;99.90;;;;;;4957016;28;20818;-72
2022/06/20 06:39:33;;;;;;;1999.90;999.90;;;13.80;99.90;;;;;;4957237;29;20510;-72
2022/06/20 06:42:03;;;;;;;1999.90;999.90;;;13.90;99.90;;;;;;4956085;29;20457;-73
2022/06/20 06:44:42;;;;;;;1999.90;999.90;;;13.80;99.90;;;;;;4957078;28;20421;-72
2022/06/20 06:47:18;;;;;;;1999.90;999.90;;;13.80;99.90;;;;;;4956809;28;20427;-72
2022/06/20 06:49:47;;;;;;;1999.90;999.90;;;13.70;99.90;;;;;;4956960;28;20463;-72
2022/06/20 06:52:25;;;;;;;1999.90;999.90;;;13.70;99.90;;;;;;4956927;28;20427;-72
2022/06/20 06:55:03;;;;;;;1999.90;999.90;;;13.80;99.90;;;;;;4956954;28;20410;-72
2022/06/20 06:57:41;;;;;;;1999.90;999.90;;;13.80;99.90;;;;;;4956622;28;20413;-72
2022/06/20 07:00:07;;;;;;;1999.90;999.90;;;13.90;99.90;;;;;;4956825;28;20776;-73
2022/06/20 07:02:38;;;;;;;1999.90;999.90;;;13.80;99.90;;;;;;4956767;28;20416;-73
2022/06/20 07:05:07;;;;;;;1999.90;999.90;;;13.80;99.90;;;;;;4956807;28;20168;-73
2022/06/20 07:07:39;;;;;;;1999.90;999.90;;;13.90;99.90;;;;;;4956342;28;20411;-73
2022/06/20 07:10:08;;;;;;;1999.90;999.90;;;13.90;99.90;;;;;;4956640;28;20874;-73
2022/06/20 07:12:41;;;;;;;1999.90;999.90;;;14.00;99.90;;;;;;4956637;28;20402;-73
2022/06/20 07:15:18;;;;;;;1999.90;999.90;;;14.10;99.90;;;;;;4956623;28;20481;-73
2022/06/20 07:18:04;;;;;;;1999.90;999.90;;;14.20;99.90;;;;;;4956226;28;20466;-73
2022/06/20 07:20:36;;;;;;;1999.90;999.90;;;14.30;99.90;;;;;;4956364;28;20430;-73
2022/06/20 07:23:05;;;;;;;1999.90;999.90;;;14.30;99.90;;;;;;4962680;28;20916;-70
2022/06/20 07:25:35;;;;;;;1999.90;999.90;;;14.40;99.90;;;;;;4965516;28;20414;-73
2022/06/20 07:28:18;;;;;;;1999.90;999.90;;;14.40;99.90;;;;;;4957927;28;20467;-73
2022/06/20 07:30:53;;;;;;;1999.90;999.90;;;14.40;99.90;;;;;;4956104;28;20448;-73
2022/06/20 07:33:48;;;;;;;1999.90;999.90;;;14.30;99.90;;;;;;4956218;28;20410;-73
2022/06/20 07:36:16;;;;;;;1999.90;999.90;;;14.40;99.90;;;;;;4934544;28;20427;-72
2022/06/20 07:39:05;;;;;;;1999.90;999.90;;;14.40;99.90;;;;;;4956132;28;20410;-73
2022/06/20 07:41:45;;;;;;;1999.90;999.90;;;14.40;99.90;;;;;;4956086;28;20429;-73
2022/06/20 07:44:19;;;;;;;1999.90;999.90;;;14.40;99.90;;;;;;4955791;28;20939;-72
2022/06/20 07:46:57;;;;;;;1999.90;999.90;;;14.30;99.90;;;;;;4955809;28;20810;-72
2022/06/20 07:49:48;;;;;;;1999.90;999.90;;;14.30;99.90;;;;;;4955829;28;20799;-73
2022/06/20 07:52:21;;;;;;;1999.90;999.90;;;14.30;99.90;;;;;;4955838;28;20417;-73
2022/06/20 07:54:53;;;;;;;1999.90;999.90;;;14.30;99.90;;;;;;4955976;28;20778;-72
2022/06/20 07:57:25;;;;;;;1999.90;999.90;;;14.50;99.90;;;;;;4955587;28;20805;-73
2022/06/20 08:00:18;;;;;;;1999.90;999.90;;;14.60;99.90;;;;;;4955715;28;20401;-72
2022/06/20 08:02:43;;;;;;;1999.90;999.90;;;14.80;99.90;;;;;;4955277;29;20794;-72
2022/06/20 08:05:16;;;;;;;1999.90;999.90;;;14.90;99.90;;;;;;4955717;28;20407;-73
2022/06/20 08:07:48;;;;;;;1999.90;999.90;;;15.00;99.90;;;;;;4955665;28;20261;-74
2022/06/20 08:10:19;;;;;;;1999.90;999.90;;;15.00;99.90;;;;;;4956150;28;20410;-74
2022/06/20 08:13:22;;;;;;;1999.90;999.90;;;15.10;99.90;;;;;;4955773;28;20438;-74
2022/06/20 08:16:01;;;;;;;1999.90;999.90;;;15.00;99.90;;;;;;4955443;29;20445;-73
2022/06/20 08:18:28;;;;;;;1999.90;999.90;;;15.10;99.90;;;;;;4955418;28;20396;-73
2022/06/20 08:21:03;;;;;;;1999.90;999.90;;;15.20;99.90;;;;;;4955198;28;20434;-73
2022/06/20 08:23:42;;;;;;;1999.90;999.90;;;15.20;99.90;;;;;;4955382;28;20563;-72
2022/06/20 08:26:12;;;;;;;1999.90;999.90;;;15.20;99.90;;;;;;4955109;28;20408;-73
2022/06/20 08:28:47;;;;;;;1999.90;999.90;;;15.40;99.90;;;;;;4955139;28;20540;-73
2022/06/20 08:31:19;;;;;;;1999.90;999.90;;;15.50;99.90;;;;;;4955031;28;20472;-73
2022/06/20 08:33:57;;;;;;;1999.90;999.90;;;15.70;99.90;;;;;;4955199;28;20463;-73
2022/06/20 08:36:35;;;;;;;1999.90;999.90;;;15.90;99.90;;;;;;4954968;28;20786;-73
2022/06/20 08:39:10;;;;;;;1999.90;999.90;;;16.20;99.90;;;;;;4955268;28;20414;-73
2022/06/20 08:41:58;;;;;;;1999.90;999.90;;;16.50;99.90;;;;;;4955095;28;20476;-73
2022/06/20 08:44:44;;;;;;;1999.90;999.90;;;16.80;99.90;;;;;;4955135;28;20410;-73
2022/06/20 08:47:30;;;;;;;1999.90;999.90;;;16.90;99.90;;;;;;4954691;28;20804;-73
2022/06/20 08:50:14;;;;;;;1999.90;999.90;;;17.00;99.90;;;;;;4955038;28;20414;-73
2022/06/20 08:53:01;;;;;;;1999.90;999.90;;;17.10;99.90;;;;;;4955287;28;20454;-73
2022/06/20 08:55:58;;;;;;;1999.90;999.90;;;17.20;99.90;;;;;;4954847;28;20401;-73
2022/06/20 08:58:55;;;;;;;1999.90;999.90;;;17.30;99.90;;;;;;4955321;28;20905;-73
2022/06/20 09:01:35;;;;;;;1999.90;999.90;;;17.10;99.90;;;;;;4954615;28;20832;-73
2022/06/20 09:04:26;;;;;;;1999.90;999.90;;;17.20;99.90;;;;;;4955151;28;20487;-73
2022/06/20 09:07:04;;;;;;;1999.90;999.90;;;17.20;99.90;;;;;;4954262;28;20422;-73
2022/06/20 09:09:48;;;;;;;1999.90;999.90;;;17.40;99.90;;;;;;4955605;28;20829;-73
2022/06/20 09:12:48;;;;;;;1999.90;999.90;;;17.50;99.90;;;;;;4955269;28;20456;-72
2022/06/20 09:15:43;;;;;;;1999.90;999.90;;;17.50;99.90;;;;;;4954857;28;20456;-73
2022/06/20 09:18:09;;;;;;;1999.90;999.90;;;17.50;99.90;;;;;;4956237;28;20421;-73
2022/06/20 09:20:58;;;;;;;1999.90;999.90;;;17.70;99.90;;;;;;4955508;28;20430;-73
2022/06/20 09:23:43;;;;;;;1999.90;999.90;;;18.00;99.90;;;;;;4954860;28;20179;-71
2022/06/20 09:26:21;;;;;;;1999.90;999.90;;;18.20;99.90;;;;;;4953941;28;20406;-71
2022/06/20 09:29:01;;;;;;;1999.90;999.90;;;18.20;99.90;;;;;;4954168;28;20442;-71
2022/06/20 09:31:36;;;;;;;1999.90;999.90;;;18.20;99.90;;;;;;4954015;28;20533;-71
2022/06/20 09:34:46;;;;;;;1999.90;999.90;;;18.20;99.90;;;;;;4954112;28;20411;-74
2022/06/20 09:37:31;;;;;;;1999.90;999.90;;;18.30;99.90;;;;;;4953848;28;20400;-74
2022/06/20 09:40:19;;;;;;;1999.90;999.90;;;18.50;99.90;;;;;;4953992;28;20498;-71
2022/06/20 09:42:50;;;;;;;1999.90;999.90;;;18.50;99.90;;;;;;4954034;28;20435;-71
2022/06/20 09:45:35;;;;;;;1999.90;999.90;;;18.40;99.90;;;;;;4954013;28;20426;-71
2022/06/20 09:48:08;;;;;;;1999.90;999.90;;;18.20;99.90;;;;;;4953240;28;20460;-71
2022/06/20 09:50:56;;;;;;;1999.90;999.90;;;18.10;99.90;;;;;;4953893;28;20497;-71
2022/06/20 09:53:34;;;;;;;1999.90;999.90;;;18.10;99.90;;;;;;4954139;28;20464;-71
2022/06/20 09:56:14;;;;;;;1999.90;999.90;;;18.10;99.90;;;;;;4953748;28;20897;-71
2022/06/20 09:59:07;;;;;;;1999.90;999.90;;;18.10;99.90;;;;;;4955925;28;20398;-71
2022/06/20 10:02:01;;;;;;;1999.90;999.90;;;18.30;99.90;;;;;;4953731;29;20432;-71
2022/06/20 10:04:48;;;;;;;1999.90;999.90;;;18.70;99.90;;;;;;4953893;28;20417;-73
2022/06/20 10:07:20;;;;;;;1999.90;999.90;;;18.90;99.90;;;;;;4953506;28;20406;-73
2022/06/20 10:10:09;;;;;;;1999.90;999.90;;;18.80;99.90;;;;;;4953725;28;20541;-73
2022/06/20 10:12:54;;;;;;;1999.90;999.90;;;18.80;99.90;;;;;;4953801;28;20402;-71
2022/06/20 10:15:39;;;;;;;1999.90;999.90;;;18.70;99.90;;;;;;4953663;28;20414;-71
2022/06/20 10:18:28;;;;;;;1999.90;999.90;;;18.50;99.90;;;;;;4953471;28;20430;-71
2022/06/20 10:21:00;;;;;;;1999.90;999.90;;;18.40;99.90;;;;;;4953595;28;20426;-73
2022/06/20 10:23:37;;;;;;;1999.90;999.90;;;18.20;99.90;;;;;;4953698;28;20408;-73
2022/06/20 10:26:31;;;;;;;1999.90;999.90;;;18.20;99.90;;;;;;4953429;28;20436;-73
2022/06/20 10:29:22;;;;;;;1999.90;999.90;;;18.30;99.90;;;;;;4953489;28;20458;-73
2022/06/20 10:32:43;;;;;;;1999.90;999.90;;;18.40;99.90;;;;;;4954029;28;20482;-73
2022/06/20 10:35:23;;;;;;;1999.90;999.90;;;18.40;99.90;;;;;;4904210;28;20420;-72
2022/06/20 10:38:01;;;;;;;1999.90;999.90;;;18.30;99.90;;;;;;4953272;28;20442;-73
2022/06/20 10:40:41;;;;;;;1999.90;999.90;;;18.20;99.90;;;;;;4953362;28;20982;-73
2022/06/20 10:43:23;;;;;;;1999.90;999.90;;;18.20;99.90;;;;;;4953578;28;20404;-73
2022/06/20 10:46:16;;;;;;;1999.90;999.90;;;18.60;99.90;;;;;;4953425;28;20412;-73
2022/06/20 10:48:45;;;;;;;1999.90;999.90;;;19.10;99.90;;;;;;4953326;28;20491;-73
2022/06/20 10:51:20;;;;;;;1999.90;999.90;;;19.30;99.90;;;;;;4953322;28;20471;-73
2022/06/20 10:54:10;;;;;;;1999.90;999.90;;;19.30;99.90;;;;;;4953459;28;20410;-74
2022/06/20 10:56:59;;;;;;;1999.90;999.90;;;19.30;99.90;;;;;;4953093;28;20395;-73
2022/06/20 10:59:38;;;;;;;1999.90;999.90;;;19.20;99.90;;;;;;4953534;28;20921;-74
2022/06/20 11:02:14;;;;;;;1999.90;999.90;;;19.30;99.90;;;;;;4956874;28;20429;-74
2022/06/20 11:04:55;;;;;;;1999.90;999.90;;;19.60;99.90;;;;;;4956824;28;20415;-73
2022/06/20 11:07:34;;;;;;;1999.90;999.90;;;19.90;99.90;;;;;;4956460;28;20867;-74
2022/06/20 11:10:29;;;;;;;1999.90;999.90;;;20.40;99.90;;;;;;4956666;28;20418;-73
2022/06/20 11:13:22;;;;;;;1999.90;999.90;;;20.60;99.90;;;;;;4956641;28;20400;-73
2022/06/20 11:16:10;;;;;;;1999.90;999.90;;;20.80;99.90;;;;;;4956531;28;20847;-73
2022/06/20 11:19:25;;;;;;;1999.90;999.90;;;21.20;99.90;;;;;;4956543;28;20439;-73
2022/06/20 11:22:02;;;;;;;1999.90;999.90;;;21.20;99.90;;;;;;4897030;29;20438;-74
2022/06/20 11:24:27;;;;;;;1999.90;999.90;;;21.60;99.90;;;;;;4948873;28;20444;-73
2022/06/20 11:27:20;;;;;;;1999.90;999.90;;;21.90;99.90;;;;;;4956291;28;20503;-74
2022/06/20 11:29:52;;;;;;;1999.90;999.90;;;22.10;99.90;;;;;;4956289;28;20460;-73
2022/06/20 11:32:52;;;;;;;1999.90;999.90;;;22.10;99.90;;;;;;4956103;28;20839;-73
2022/06/20 11:35:36;;;;;;;1999.90;999.90;;;22.00;99.90;;;;;;4943181;29;20903;-73
2022/06/20 11:38:02;;;;;;;1999.90;999.90;;;22.00;99.90;;;;;;4956106;29;20759;-73
2022/06/20 11:40:49;;;;;;;1999.90;999.90;;;22.00;99.90;;;;;;4956050;28;20438;-73
2022/06/20 11:43:52;;;;;;;1999.90;999.90;;;22.10;99.90;;;;;;4956089;28;20177;-73
2022/06/20 11:46:43;;;;;;;1999.90;999.90;;;22.00;99.90;;;;;;4955793;29;20521;-73
2022/06/20 11:49:20;;;;;;;1999.90;999.90;;;22.00;99.90;;;;;;4955888;28;20489;-73
2022/06/20 11:52:03;;;;;;;1999.90;999.90;;;22.20;99.90;;;;;;4955868;28;20950;-73
2022/06/20 11:55:19;;;;;;;1999.90;999.90;;;22.20;99.90;;;;;;4955967;28;20833;-73
2022/06/20 11:58:00;;;;;;;1999.90;999.90;;;22.20;99.90;;;;;;4924526;28;20427;-74
2022/06/20 12:00:51;;;;;;;1999.90;999.90;;;22.60;99.90;;;;;;4957562;28;20834;-74
2022/06/20 12:03:41;;;;;;;1999.90;999.90;;;22.80;99.90;;;;;;4957224;28;20412;-74
2022/06/20 12:06:15;;;;;;;1999.90;999.90;;;23.00;99.90;;;;;;4957666;28;20747;-74
2022/06/20 12:08:55;;;;;;;1999.90;999.90;;;23.10;99.90;;;;;;4958028;28;20464;-74
2022/06/20 12:11:30;;;;;;;1999.90;999.90;;;22.70;99.90;;;;;;4957603;28;20425;-74
2022/06/20 12:14:18;;;;;;;1999.90;999.90;;;23.00;99.90;;;;;;4957137;28;20421;-74
2022/06/20 12:16:43;;;;;;;1999.90;999.90;;;23.80;99.90;;;;;;4956921;28;20752;-74
2022/06/20 12:24:57;;;;;;;1999.90;999.90;;;24.40;96.90;;;;;;4957553;29;20384;-74
2022/06/20 12:27:22;;;;;;;1999.90;999.90;;;23.90;94.00;;;;;;4956665;28;20388;-74
2022/06/20 12:29:49;;;;;;;1999.90;999.90;;;23.60;95.40;;;;;;4957453;28;20458;-74
2022/06/20 12:32:17;;;;;;;1999.90;999.90;;;24.00;96.00;;;;;;4956313;28;20215;-74
2022/06/20 12:34:43;;;;;;;1999.90;999.90;;;24.40;93.90;;;;;;4956148;28;20458;-74
2022/06/20 12:37:21;;;;;;;1999.90;999.90;;;24.80;93.70;;;;;;4956052;28;20891;-74
2022/06/20 12:39:55;;;;;;;1999.90;999.90;;;25.20;90.10;;;;;;4967089;28;20441;-75
2022/06/20 12:42:42;;;;;;;1999.90;999.90;;;25.10;80.90;;;;;;4991344;28;20932;-74
2022/06/20 12:45:27;;;;;;;1999.90;999.90;;;25.50;77.10;;;;;;4991287;28;20421;-77
2022/06/20 12:48:23;;;;;;;1999.90;999.90;;;25.70;74.60;;;;;;4986334;28;20389;-74
2022/06/20 12:51:03;;;;;;;1999.90;999.90;;;25.90;63.60;;;;;;4964030;28;20467;-75
2022/06/20 12:53:38;;;;;;;1999.90;999.90;;;26.60;60.80;;;;;;4975179;28;20405;-74
2022/06/20 12:56:10;;;;;;;1999.90;999.90;;;26.70;58.40;;;;;;4976839;28;20400;-75
2022/06/20 12:58:49;;;;;;;1999.90;999.90;;;27.10;54.70;;;;;;4988392;28;20508;-77
2022/06/20 13:01:27;;;;;;;1999.90;999.90;;;26.90;55.10;;;;;;4985315;28;20944;-73